Time;durP1;ratioP1;P1;durP2;ratioP2;P2;SDS_P1;SDS_P2;PMS_P1;PMS_P2;Temp;Humidity;BMP_temperature;BMP_pressure;BME280_temperature;BME280_humidity;BME280_pressure;Samples;Min_cycle;Max_cycle;Signal;HPM_P1;HPM_P2
2023/10/21 00:02:12;;;;;;;57.45;26.42;;;;;;;;;;5044354;28;20098;-73
2023/10/21 00:04:38;;;;;;;76.53;26.95;;;;;;;;;;5034677;28;20486;-73
2023/10/21 00:07:05;;;;;;;82.13;26.92;;;;;;;;;;5032786;28;20040;-72
2023/10/21 00:09:31;;;;;;;78.35;26.52;;;;;;;;;;5046325;28;20120;-73
2023/10/21 00:11:58;;;;;;;70.38;27.52;;;;;;;;;;5025175;28;20046;-73
2023/10/21 00:14:24;;;;;;;64.15;25.45;;;;;;;;;;5034699;28;20052;-73
2023/10/21 00:16:52;;;;;;;73.65;27.27;;;;;;;;;;5033474;28;20107;-73
2023/10/21 00:19:18;;;;;;;66.90;26.65;;;;;;;;;;5042410;28;20072;-71
2023/10/21 00:21:45;;;;;;;72.07;26.60;;;;;;;;;;5031527;28;20049;-71
2023/10/21 00:24:11;;;;;;;70.72;24.95;;;;;;;;;;5033484;28;20048;-72
2023/10/21 00:26:44;;;;;;;69.63;28.92;;;;;;;;;;5025804;28;20142;-71
2023/10/21 00:29:11;;;;;;;72.72;26.30;;;;;;;;;;5046187;28;20057;-71
2023/10/21 00:31:38;;;;;;;69.75;25.50;;;;;;;;;;5035487;28;20043;-72
2023/10/21 00:34:04;;;;;;;72.47;29.52;;;;;;;;;;5043660;28;20065;-72
2023/10/21 00:36:31;;;;;;;66.53;25.65;;;;;;;;;;5040317;28;20630;-72
2023/10/21 00:38:57;;;;;;;63.08;27.20;;;;;;;;;;5040798;28;20057;-72
2023/10/21 00:41:24;;;;;;;74.32;27.70;;;;;;;;;;5033861;28;20689;-72
2023/10/21 00:43:50;;;;;;;88.93;27.92;;;;;;;;;;5038168;28;20749;-72
2023/10/21 00:46:17;;;;;;;76.13;30.58;;;;;;;;;;5025693;28;20136;-71
2023/10/21 00:48:45;;;;;;;82.88;29.13;;;;;;;;;;5031484;28;20052;-72
2023/10/21 00:51:11;;;;;;;81.35;29.48;;;;;;;;;;5038909;28;20041;-72
2023/10/21 00:53:38;;;;;;;79.47;28.02;;;;;;;;;;5048848;28;20095;-72
2023/10/21 00:56:08;;;;;;;70.88;28.20;;;;;;;;;;5028038;28;20226;-72
2023/10/21 00:58:35;;;;;;;68.65;27.33;;;;;;;;;;5033546;28;20041;-72
2023/10/21 01:01:06;;;;;;;76.32;26.67;;;;;;;;;;5040250;28;20067;-72
2023/10/21 01:03:33;;;;;;;75.85;27.95;;;;;;;;;;5039039;28;20426;-73
2023/10/21 01:06:00;;;;;;;73.70;26.02;;;;;;;;;;5031338;28;20072;-72
2023/10/21 01:08:27;;;;;;;71.10;28.55;;;;;;;;;;5029606;28;20052;-72
2023/10/21 01:10:53;;;;;;;72.80;28.05;;;;;;;;;;5038800;28;20045;-71
2023/10/21 01:13:20;;;;;;;70.45;26.40;;;;;;;;;;5037855;28;20669;-72
2023/10/21 01:15:46;;;;;;;73.55;28.15;;;;;;;;;;5036067;28;20153;-71
2023/10/21 01:18:13;;;;;;;71.82;28.60;;;;;;;;;;5046598;28;20041;-72
2023/10/21 01:20:41;;;;;;;84.88;28.50;;;;;;;;;;5037479;28;20509;-71
2023/10/21 01:23:07;;;;;;;75.25;27.33;;;;;;;;;;5041577;28;20044;-72
2023/10/21 01:25:34;;;;;;;70.07;26.48;;;;;;;;;;5040956;28;20103;-71
2023/10/21 01:28:01;;;;;;;75.57;27.20;;;;;;;;;;5047170;28;20725;-72
2023/10/21 01:30:27;;;;;;;71.57;27.77;;;;;;;;;;5035862;28;20041;-72
2023/10/21 01:32:54;;;;;;;76.05;29.13;;;;;;;;;;5042160;28;20045;-71
2023/10/21 01:35:21;;;;;;;76.78;28.50;;;;;;;;;;5032412;28;20076;-72
2023/10/21 01:37:48;;;;;;;80.47;27.02;;;;;;;;;;5046868;28;20435;-72
2023/10/21 01:40:14;;;;;;;73.28;29.48;;;;;;;;;;5031598;28;20038;-71
2023/10/21 01:42:41;;;;;;;65.65;27.00;;;;;;;;;;5043095;28;20038;-72
2023/10/21 01:45:08;;;;;;;76.22;27.00;;;;;;;;;;5044988;28;20081;-71
2023/10/21 01:47:35;;;;;;;72.53;26.02;;;;;;;;;;5041247;28;20061;-71
2023/10/21 01:50:03;;;;;;;60.13;26.67;;;;;;;;;;5034751;28;20117;-72
2023/10/21 01:52:29;;;;;;;69.72;26.67;;;;;;;;;;5032720;28;20045;-71
2023/10/21 01:54:56;;;;;;;57.13;25.33;;;;;;;;;;5026157;28;20051;-72
2023/10/21 01:57:22;;;;;;;60.60;26.95;;;;;;;;;;5034344;28;20045;-72
2023/10/21 01:59:49;;;;;;;67.18;26.00;;;;;;;;;;5044178;28;20045;-72
2023/10/21 02:02:16;;;;;;;61.63;24.27;;;;;;;;;;5026971;28;20180;-72
2023/10/21 02:04:42;;;;;;;60.08;24.33;;;;;;;;;;5044896;28;20053;-71
2023/10/21 02:07:09;;;;;;;72.05;27.30;;;;;;;;;;5034634;28;20036;-72
2023/10/21 02:09:36;;;;;;;63.42;23.63;;;;;;;;;;5045652;28;20095;-71
2023/10/21 02:12:03;;;;;;;65.63;25.55;;;;;;;;;;5043523;28;20146;-72
2023/10/21 02:14:29;;;;;;;68.55;26.90;;;;;;;;;;5043132;28;20053;-72
2023/10/21 02:16:56;;;;;;;66.88;26.48;;;;;;;;;;5034959;28;20513;-71
2023/10/21 02:19:24;;;;;;;63.33;26.15;;;;;;;;;;5040880;28;20045;-73
2023/10/21 02:21:51;;;;;;;69.40;26.20;;;;;;;;;;5043476;28;20059;-72
2023/10/21 02:24:17;;;;;;;68.28;26.42;;;;;;;;;;5042941;28;20053;-71
2023/10/21 02:26:43;;;;;;;70.40;27.52;;;;;;;;;;5035090;28;20052;-72
2023/10/21 02:29:10;;;;;;;64.70;27.42;;;;;;;;;;5036784;28;20052;-72
2023/10/21 02:31:36;;;;;;;80.65;25.85;;;;;;;;;;5030248;28;20050;-72
2023/10/21 02:34:03;;;;;;;77.32;31.85;;;;;;;;;;5039406;28;20047;-72
2023/10/21 02:36:29;;;;;;;62.17;25.90;;;;;;;;;;5039241;28;20076;-71
2023/10/21 02:38:56;;;;;;;79.13;27.23;;;;;;;;;;5044535;28;20645;-72
2023/10/21 02:41:22;;;;;;;72.07;28.65;;;;;;;;;;5031929;28;20052;-72
2023/10/21 02:43:49;;;;;;;73.57;27.10;;;;;;;;;;5035053;28;20138;-72
2023/10/21 02:46:15;;;;;;;73.50;27.83;;;;;;;;;;5040950;28;20136;-72
2023/10/21 02:48:45;;;;;;;62.00;26.17;;;;;;;;;;5040060;28;20144;-71
2023/10/21 02:51:12;;;;;;;73.50;27.92;;;;;;;;;;5032498;28;20049;-72
2023/10/21 02:53:42;;;;;;;70.82;28.52;;;;;;;;;;5045389;28;20550;-72
2023/10/21 02:56:09;;;;;;;74.78;26.30;;;;;;;;;;5036287;28;20136;-72
2023/10/21 02:58:36;;;;;;;87.28;28.40;;;;;;;;;;5039623;28;20136;-72
2023/10/21 03:01:19;;;;;;;76.30;26.20;;;;;;;;;;5034809;28;20136;-74
2023/10/21 03:03:46;;;;;;;69.80;28.08;;;;;;;;;;5044996;28;20055;-72
2023/10/21 03:06:13;;;;;;;96.80;29.90;;;;;;;;;;5033453;28;20041;-71
2023/10/21 03:08:40;;;;;;;86.97;32.10;;;;;;;;;;5045323;28;20041;-72
2023/10/21 03:11:07;;;;;;;107.97;32.38;;;;;;;;;;5033338;28;20045;-72
2023/10/21 03:13:34;;;;;;;84.85;27.77;;;;;;;;;;5043855;28;20120;-72
2023/10/21 03:16:05;;;;;;;103.03;30.25;;;;;;;;;;5026249;28;20253;-72
2023/10/21 03:18:31;;;;;;;102.38;28.90;;;;;;;;;;5026560;28;20041;-72
2023/10/21 03:20:58;;;;;;;65.00;26.15;;;;;;;;;;5039140;28;20040;-72
2023/10/21 03:23:24;;;;;;;112.80;30.23;;;;;;;;;;5038773;28;20049;-72
2023/10/21 03:25:55;;;;;;;104.25;29.58;;;;;;;;;;5025653;28;20121;-72
2023/10/21 03:28:22;;;;;;;120.15;27.70;;;;;;;;;;5037928;28;20063;-71
2023/10/21 03:30:48;;;;;;;74.60;25.45;;;;;;;;;;5040551;28;20460;-71
2023/10/21 03:33:15;;;;;;;99.68;28.52;;;;;;;;;;5032568;28;20276;-72
2023/10/21 03:35:55;;;;;;;90.22;25.75;;;;;;;;;;5030319;28;20659;-72
2023/10/21 03:38:21;;;;;;;83.95;26.05;;;;;;;;;;5030070;28;20429;-74
2023/10/21 03:40:58;;;;;;;74.28;27.20;;;;;;;;;;5040638;28;20081;-72
2023/10/21 03:43:25;;;;;;;91.82;27.77;;;;;;;;;;5039885;28;20045;-71
2023/10/21 03:45:53;;;;;;;94.78;27.13;;;;;;;;;;5043569;28;20037;-72
2023/10/21 03:48:19;;;;;;;99.82;28.75;;;;;;;;;;5043521;28;20493;-71
2023/10/21 03:50:46;;;;;;;92.15;29.05;;;;;;;;;;5033538;28;20053;-72
2023/10/21 03:53:14;;;;;;;101.97;26.75;;;;;;;;;;5039499;28;20045;-72
2023/10/21 03:55:41;;;;;;;103.70;26.87;;;;;;;;;;4998699;28;1120520;-71
2023/10/21 03:58:08;;;;;;;84.22;26.17;;;;;;;;;;5044487;28;20378;-72
2023/10/21 04:00:34;;;;;;;92.95;28.60;;;;;;;;;;5034427;28;20045;-72
2023/10/21 04:03:00;;;;;;;69.05;24.63;;;;;;;;;;5041027;28;20052;-71
2023/10/21 04:05:28;;;;;;;83.78;25.42;;;;;;;;;;5030420;28;20037;-71
2023/10/21 04:07:55;;;;;;;69.30;24.88;;;;;;;;;;5040097;28;20131;-72
2023/10/21 04:10:21;;;;;;;66.88;24.08;;;;;;;;;;5030117;28;20095;-71
2023/10/21 04:12:48;;;;;;;66.90;23.25;;;;;;;;;;5039826;28;20553;-72
2023/10/21 04:15:14;;;;;;;72.32;24.70;;;;;;;;;;5042763;28;20124;-72
2023/10/21 04:17:41;;;;;;;80.22;23.10;;;;;;;;;;5039610;28;20107;-72
2023/10/21 04:20:07;;;;;;;76.65;24.48;;;;;;;;;;5031846;28;20069;-72
2023/10/21 04:22:34;;;;;;;61.85;22.42;;;;;;;;;;5035200;28;20041;-72
2023/10/21 04:25:01;;;;;;;72.30;21.65;;;;;;;;;;5038016;28;21017;-71
2023/10/21 04:27:28;;;;;;;58.00;21.10;;;;;;;;;;5033552;28;20399;-71
2023/10/21 04:29:54;;;;;;;77.07;25.30;;;;;;;;;;5042438;28;20144;-72
2023/10/21 04:32:21;;;;;;;75.97;24.80;;;;;;;;;;5027920;28;20045;-71
2023/10/21 04:34:47;;;;;;;71.78;22.83;;;;;;;;;;5041719;28;20076;-72
2023/10/21 04:37:14;;;;;;;74.38;23.75;;;;;;;;;;5033306;28;20295;-71
2023/10/21 04:39:40;;;;;;;78.35;26.00;;;;;;;;;;5039604;28;20049;-71
2023/10/21 04:42:06;;;;;;;77.57;25.63;;;;;;;;;;5056686;28;20124;-72
2023/10/21 04:44:33;;;;;;;72.20;26.30;;;;;;;;;;5041235;28;20045;-71
2023/10/21 04:47:00;;;;;;;76.75;26.33;;;;;;;;;;5033496;28;20045;-72
2023/10/21 04:49:26;;;;;;;79.95;26.42;;;;;;;;;;5040213;28;20037;-72
2023/10/21 04:51:53;;;;;;;82.75;25.45;;;;;;;;;;5044076;28;20055;-71
2023/10/21 04:54:19;;;;;;;68.22;25.77;;;;;;;;;;5043901;28;20053;-72
2023/10/21 04:56:45;;;;;;;61.13;25.73;;;;;;;;;;5034557;28;20122;-72
2023/10/21 04:59:12;;;;;;;77.28;23.70;;;;;;;;;;5033881;28;20419;-71
2023/10/21 05:01:38;;;;;;;68.53;24.05;;;;;;;;;;5025172;28;20584;-71
2023/10/21 05:04:05;;;;;;;67.13;24.83;;;;;;;;;;5030817;28;20128;-71
2023/10/21 05:06:31;;;;;;;58.33;22.15;;;;;;;;;;5028386;28;20102;-72
2023/10/21 05:08:58;;;;;;;70.07;25.38;;;;;;;;;;5041246;28;20080;-72
2023/10/21 05:11:25;;;;;;;67.63;25.30;;;;;;;;;;5029446;28;20045;-71
2023/10/21 05:13:51;;;;;;;76.35;24.60;;;;;;;;;;5043791;28;20124;-72
2023/10/21 05:16:17;;;;;;;66.80;25.15;;;;;;;;;;5036236;28;20072;-72
2023/10/21 05:18:44;;;;;;;78.07;26.90;;;;;;;;;;5037590;28;20052;-72
2023/10/21 05:21:11;;;;;;;66.80;24.90;;;;;;;;;;5031205;28;20164;-71
2023/10/21 05:23:38;;;;;;;67.20;24.25;;;;;;;;;;5043400;28;20059;-72
2023/10/21 05:26:05;;;;;;;58.42;23.88;;;;;;;;;;5028624;28;20056;-72
2023/10/21 05:28:31;;;;;;;53.40;22.27;;;;;;;;;;5038311;28;20084;-71
2023/10/21 05:30:57;;;;;;;68.10;23.77;;;;;;;;;;5032463;28;20129;-71
2023/10/21 05:33:24;;;;;;;67.57;24.48;;;;;;;;;;5043086;28;20053;-72
2023/10/21 05:35:51;;;;;;;77.47;24.50;;;;;;;;;;5027041;28;20050;-72
2023/10/21 05:38:18;;;;;;;65.35;22.75;;;;;;;;;;5037954;28;20048;-71
2023/10/21 05:40:44;;;;;;;61.25;24.52;;;;;;;;;;5032906;28;20064;-72
2023/10/21 05:43:11;;;;;;;70.35;24.05;;;;;;;;;;5040267;28;20482;-72
2023/10/21 05:45:37;;;;;;;63.60;24.85;;;;;;;;;;5025417;28;20603;-72
2023/10/21 05:48:04;;;;;;;56.22;22.65;;;;;;;;;;5033201;28;20037;-71
2023/10/21 05:50:30;;;;;;;84.32;23.42;;;;;;;;;;5037716;28;20268;-71
2023/10/21 05:52:57;;;;;;;84.32;25.30;;;;;;;;;;5042100;28;20095;-72
2023/10/21 05:55:23;;;;;;;83.63;28.85;;;;;;;;;;5035715;28;20057;-71
2023/10/21 05:57:50;;;;;;;67.00;23.88;;;;;;;;;;5027905;28;20053;-71
2023/10/21 06:00:16;;;;;;;68.03;25.05;;;;;;;;;;5039676;28;20128;-72
2023/10/21 06:02:43;;;;;;;70.70;25.13;;;;;;;;;;5037489;28;20367;-71
2023/10/21 06:05:09;;;;;;;71.03;25.85;;;;;;;;;;5039555;28;20092;-72
2023/10/21 06:07:36;;;;;;;72.65;22.45;;;;;;;;;;5040349;28;20124;-72
2023/10/21 06:10:02;;;;;;;60.55;24.10;;;;;;;;;;5045617;28;20052;-71
2023/10/21 06:12:29;;;;;;;72.03;24.65;;;;;;;;;;5036638;28;20083;-71
2023/10/21 06:14:55;;;;;;;57.47;23.95;;;;;;;;;;5042348;28;20289;-72
2023/10/21 06:17:22;;;;;;;58.45;23.02;;;;;;;;;;5042336;28;20519;-72
2023/10/21 06:19:48;;;;;;;65.60;23.40;;;;;;;;;;5043628;28;20103;-71
2023/10/21 06:22:16;;;;;;;54.33;21.60;;;;;;;;;;5034506;28;20068;-72
2023/10/21 06:24:43;;;;;;;64.93;24.13;;;;;;;;;;5044080;28;20087;-71
2023/10/21 06:27:11;;;;;;;63.97;23.80;;;;;;;;;;5042351;28;20094;-71
2023/10/21 06:29:38;;;;;;;70.55;25.23;;;;;;;;;;5043094;28;20679;-73
2023/10/21 06:32:06;;;;;;;66.68;25.40;;;;;;;;;;5035268;28;20477;-72
2023/10/21 06:34:33;;;;;;;62.28;23.33;;;;;;;;;;5037211;28;20117;-71
2023/10/21 06:37:00;;;;;;;61.22;23.88;;;;;;;;;;5043294;28;20257;-73
2023/10/21 06:39:27;;;;;;;58.75;24.33;;;;;;;;;;5036565;28;20041;-72
2023/10/21 06:41:53;;;;;;;57.53;23.75;;;;;;;;;;5051178;28;20037;-72
2023/10/21 06:44:19;;;;;;;59.28;24.45;;;;;;;;;;5033260;28;20053;-72
2023/10/21 06:46:46;;;;;;;75.97;24.58;;;;;;;;;;5042765;28;20080;-72
2023/10/21 06:49:13;;;;;;;59.08;23.90;;;;;;;;;;5036907;28;20063;-72
2023/10/21 06:51:40;;;;;;;53.17;24.13;;;;;;;;;;5038262;28;20049;-72
2023/10/21 06:54:06;;;;;;;54.13;25.23;;;;;;;;;;5042932;28;20144;-72
2023/10/21 06:56:33;;;;;;;53.83;24.42;;;;;;;;;;5030191;28;20056;-73
2023/10/21 06:58:59;;;;;;;55.38;22.95;;;;;;;;;;5031591;28;20141;-71
2023/10/21 07:01:26;;;;;;;53.75;24.10;;;;;;;;;;5036814;28;20041;-72
2023/10/21 07:03:53;;;;;;;60.75;22.90;;;;;;;;;;5040686;28;20417;-71
2023/10/21 07:06:22;;;;;;;55.95;23.73;;;;;;;;;;5035342;28;20056;-71
2023/10/21 07:08:48;;;;;;;49.05;23.65;;;;;;;;;;5045633;28;20053;-72
2023/10/21 07:11:15;;;;;;;52.20;23.70;;;;;;;;;;5033975;28;20073;-73
2023/10/21 07:13:42;;;;;;;52.80;23.02;;;;;;;;;;5040729;28;20075;-72
2023/10/21 07:16:12;;;;;;;45.63;21.80;;;;;;;;;;5034509;28;20302;-73
2023/10/21 07:18:39;;;;;;;45.10;22.23;;;;;;;;;;5045181;28;20502;-73
2023/10/21 07:21:07;;;;;;;47.13;21.55;;;;;;;;;;5042509;28;20095;-73
2023/10/21 07:23:35;;;;;;;48.53;23.58;;;;;;;;;;5045295;28;20053;-72
2023/10/21 07:26:02;;;;;;;52.20;22.98;;;;;;;;;;5034867;28;20492;-72
2023/10/21 07:28:28;;;;;;;51.20;24.20;;;;;;;;;;5045040;28;20049;-72
2023/10/21 07:30:55;;;;;;;53.80;23.23;;;;;;;;;;5027710;28;20525;-72
2023/10/21 07:33:21;;;;;;;57.25;24.20;;;;;;;;;;5025488;28;20056;-72
2023/10/21 07:35:49;;;;;;;42.50;21.92;;;;;;;;;;5035389;28;20536;-72
2023/10/21 07:38:16;;;;;;;51.42;23.85;;;;;;;;;;5042854;28;20405;-72
2023/10/21 07:40:43;;;;;;;51.05;23.58;;;;;;;;;;5026967;28;20137;-71
2023/10/21 07:43:09;;;;;;;43.63;21.85;;;;;;;;;;5036243;28;20156;-72
2023/10/21 07:45:36;;;;;;;40.80;21.08;;;;;;;;;;5040733;28;20111;-73
2023/10/21 07:48:02;;;;;;;43.47;23.20;;;;;;;;;;5044105;28;20135;-73
2023/10/21 07:50:29;;;;;;;38.65;21.90;;;;;;;;;;5036718;28;20148;-74
2023/10/21 07:52:56;;;;;;;39.65;19.90;;;;;;;;;;5029391;28;20582;-74
2023/10/21 07:55:23;;;;;;;35.97;19.60;;;;;;;;;;5042647;28;20088;-74
2023/10/21 07:57:50;;;;;;;37.80;21.20;;;;;;;;;;5037666;28;20456;-71
2023/10/21 08:00:16;;;;;;;37.85;20.50;;;;;;;;;;5038017;28;20154;-71
2023/10/21 08:02:43;;;;;;;37.15;20.38;;;;;;;;;;5042743;28;20047;-74
2023/10/21 08:05:10;;;;;;;33.97;19.15;;;;;;;;;;5042497;28;20499;-74
2023/10/21 08:07:36;;;;;;;37.13;20.65;;;;;;;;;;5040319;28;20239;-74
2023/10/21 08:10:05;;;;;;;35.72;20.42;;;;;;;;;;5038328;28;20457;-73
2023/10/21 08:12:32;;;;;;;37.70;21.38;;;;;;;;;;5042841;28;20045;-72
2023/10/21 08:15:04;;;;;;;35.50;20.40;;;;;;;;;;5038095;28;20045;-70
2023/10/21 08:17:31;;;;;;;35.10;20.25;;;;;;;;;;5035169;28;20128;-73
2023/10/21 08:19:57;;;;;;;38.00;21.33;;;;;;;;;;5031964;28;20038;-73
2023/10/21 08:22:24;;;;;;;35.95;21.85;;;;;;;;;;5043500;28;20052;-72
2023/10/21 08:24:50;;;;;;;32.78;18.90;;;;;;;;;;5046786;28;20045;-71
2023/10/21 08:27:16;;;;;;;36.58;20.40;;;;;;;;;;5034560;28;20481;-73
2023/10/21 08:29:43;;;;;;;32.47;18.63;;;;;;;;;;5039455;28;20051;-71
2023/10/21 08:32:09;;;;;;;34.30;19.65;;;;;;;;;;5042899;28;20110;-71
2023/10/21 08:34:36;;;;;;;30.67;18.58;;;;;;;;;;5031106;28;20076;-72
2023/10/21 08:37:04;;;;;;;33.85;19.95;;;;;;;;;;5032038;28;20390;-72
2023/10/21 08:39:30;;;;;;;31.58;19.15;;;;;;;;;;5036986;28;20095;-74
2023/10/21 08:41:58;;;;;;;29.38;18.02;;;;;;;;;;5040832;28;20122;-73
2023/10/21 08:44:30;;;;;;;28.65;17.27;;;;;;;;;;5044100;28;20132;-74
2023/10/21 08:46:58;;;;;;;25.13;15.40;;;;;;;;;;5026721;28;20045;-72
2023/10/21 08:49:25;;;;;;;27.90;17.55;;;;;;;;;;5041019;28;20056;-72
2023/10/21 08:51:52;;;;;;;28.80;18.70;;;;;;;;;;5029195;28;20131;-71
2023/10/21 08:54:19;;;;;;;26.08;16.35;;;;;;;;;;5043805;28;20132;-74
2023/10/21 08:56:46;;;;;;;24.55;15.50;;;;;;;;;;5038271;28;20049;-72
2023/10/21 08:59:12;;;;;;;22.33;15.43;;;;;;;;;;5044089;28;20068;-71
2023/10/21 09:01:39;;;;;;;27.08;15.52;;;;;;;;;;5030527;28;20049;-71
2023/10/21 09:04:10;;;;;;;25.98;16.65;;;;;;;;;;5040353;28;20168;-72
2023/10/21 09:06:53;;;;;;;25.23;15.10;;;;;;;;;;5029047;28;20132;-71
2023/10/21 09:09:24;;;;;;;24.17;14.32;;;;;;;;;;5039290;28;20041;-71
2023/10/21 09:12:01;;;;;;;20.40;14.37;;;;;;;;;;5034088;28;20051;-72
2023/10/21 09:14:29;;;;;;;26.83;14.50;;;;;;;;;;5042796;28;20299;-71
2023/10/21 09:16:58;;;;;;;21.00;14.13;;;;;;;;;;5042691;28;20045;-71
2023/10/21 09:19:28;;;;;;;20.90;13.82;;;;;;;;;;5032023;28;20049;-72
2023/10/21 09:21:55;;;;;;;21.25;14.45;;;;;;;;;;5034176;28;20076;-73
2023/10/21 09:24:22;;;;;;;19.27;13.15;;;;;;;;;;5038488;28;20041;-72
2023/10/21 09:26:49;;;;;;;22.35;14.27;;;;;;;;;;5027024;28;20132;-73
2023/10/21 09:29:18;;;;;;;21.83;12.20;;;;;;;;;;5043236;28;20344;-73
2023/10/21 09:31:48;;;;;;;17.52;12.10;;;;;;;;;;5045288;28;20077;-74
2023/10/21 09:34:27;;;;;;;18.50;12.25;;;;;;;;;;5041330;28;20048;-72
2023/10/21 09:36:55;;;;;;;19.27;11.57;;;;;;;;;;5030699;28;20056;-73
2023/10/21 09:39:23;;;;;;;18.30;11.55;;;;;;;;;;5058421;28;20348;-72
2023/10/21 09:41:50;;;;;;;14.80;10.35;;;;;;;;;;5026652;28;20600;-73
2023/10/21 09:44:17;;;;;;;18.02;12.18;;;;;;;;;;5047026;28;20045;-73
2023/10/21 09:46:47;;;;;;;18.38;11.10;;;;;;;;;;5035724;28;20049;-71
2023/10/21 09:49:14;;;;;;;13.10;10.18;;;;;;;;;;5044207;28;20046;-71
2023/10/21 09:51:52;;;;;;;16.42;10.63;;;;;;;;;;5043074;28;20588;-73
2023/10/21 09:54:21;;;;;;;13.63;9.68;;;;;;;;;;5044844;28;20127;-73
2023/10/21 09:56:51;;;;;;;14.20;9.57;;;;;;;;;;5038166;28;20504;-72
2023/10/21 09:59:19;;;;;;;12.70;8.82;;;;;;;;;;5035628;28;20053;-71
2023/10/21 10:01:46;;;;;;;13.07;8.20;;;;;;;;;;5030513;28;20056;-71
2023/10/21 10:04:13;;;;;;;11.88;8.25;;;;;;;;;;5040280;28;20102;-73
2023/10/21 10:06:40;;;;;;;12.38;7.68;;;;;;;;;;5034838;28;20070;-70
2023/10/21 10:09:11;;;;;;;11.38;8.15;;;;;;;;;;5045252;28;20052;-71
2023/10/21 10:11:38;;;;;;;14.00;8.15;;;;;;;;;;5032849;28;20081;-71
2023/10/21 10:14:05;;;;;;;8.95;6.13;;;;;;;;;;5035553;28;20064;-71
2023/10/21 10:16:32;;;;;;;10.48;6.93;;;;;;;;;;5039671;28;20629;-71
2023/10/21 10:18:59;;;;;;;10.77;5.07;;;;;;;;;;5042838;28;20142;-71
2023/10/21 10:21:27;;;;;;;5.85;4.05;;;;;;;;;;5035242;28;20049;-70
2023/10/21 10:23:58;;;;;;;11.07;5.15;;;;;;;;;;5046056;28;20106;-70
2023/10/21 10:26:37;;;;;;;6.57;3.10;;;;;;;;;;5032339;28;20449;-70
2023/10/21 10:29:25;;;;;;;7.35;2.97;;;;;;;;;;5044899;28;20448;-73
2023/10/21 10:32:10;;;;;;;5.30;2.15;;;;;;;;;;5037276;28;20055;-72
2023/10/21 10:34:48;;;;;;;2.83;1.73;;;;;;;;;;5045219;28;20136;-71
2023/10/21 10:37:24;;;;;;;4.15;1.90;;;;;;;;;;5032272;28;20045;-72
2023/10/21 10:39:51;;;;;;;7.63;1.42;;;;;;;;;;5040355;28;20649;-71
2023/10/21 10:42:17;;;;;;;1.70;0.90;;;;;;;;;;5041594;28;20417;-71
2023/10/21 10:44:44;;;;;;;13.02;1.10;;;;;;;;;;5038540;28;20368;-72
2023/10/21 10:47:11;;;;;;;1.65;0.77;;;;;;;;;;5033961;28;20049;-71
2023/10/21 10:49:56;;;;;;;1.58;0.50;;;;;;;;;;5044936;28;20573;-71
2023/10/21 10:52:31;;;;;;;1.20;0.70;;;;;;;;;;5044775;28;20153;-71
2023/10/21 10:54:58;;;;;;;1.17;0.55;;;;;;;;;;5030276;28;20144;-72
2023/10/21 10:57:25;;;;;;;1.17;0.32;;;;;;;;;;5036258;28;20045;-72
2023/10/21 10:59:52;;;;;;;1.60;0.32;;;;;;;;;;5039714;28;20055;-71
2023/10/21 11:02:19;;;;;;;0.65;0.30;;;;;;;;;;5045089;28;20049;-71
2023/10/21 11:04:49;;;;;;;1.50;0.40;;;;;;;;;;5042390;28;20045;-71
2023/10/21 11:07:16;;;;;;;0.47;0.22;;;;;;;;;;5027935;28;20124;-71
2023/10/21 11:09:43;;;;;;;1.17;0.40;;;;;;;;;;5041051;28;20045;-71
2023/10/21 11:12:09;;;;;;;2.05;0.47;;;;;;;;;;5030503;28;20064;-72
2023/10/21 11:14:37;;;;;;;1.10;0.30;;;;;;;;;;5043926;28;20304;-71
2023/10/21 11:17:04;;;;;;;2.10;0.32;;;;;;;;;;5038416;28;20052;-71
2023/10/21 11:19:31;;;;;;;0.30;0.17;;;;;;;;;;5045156;28;20052;-71
2023/10/21 11:21:58;;;;;;;2.95;0.20;;;;;;;;;;5030553;28;20049;-71
2023/10/21 11:24:26;;;;;;;1.38;0.30;;;;;;;;;;5043370;28;20171;-71
2023/10/21 11:26:53;;;;;;;1.25;0.20;;;;;;;;;;5038679;28;20135;-71
2023/10/21 11:29:20;;;;;;;1.55;0.05;;;;;;;;;;5044357;28;20047;-72
2023/10/21 11:31:46;;;;;;;2.38;0.40;;;;;;;;;;5032576;28;20224;-72
2023/10/21 11:34:14;;;;;;;1.70;0.20;;;;;;;;;;5038430;28;20065;-70
2023/10/21 11:36:44;;;;;;;0.50;0.20;;;;;;;;;;5039305;28;20077;-71
2023/10/21 11:39:14;;;;;;;0.53;0.20;;;;;;;;;;5038572;28;20051;-70
2023/10/21 11:41:43;;;;;;;1.88;0.20;;;;;;;;;;5032116;28;20048;-70
2023/10/21 11:44:10;;;;;;;2.05;0.52;;;;;;;;;;5032236;28;20140;-70
2023/10/21 11:46:37;;;;;;;1.08;0.35;;;;;;;;;;5040647;28;20132;-70
2023/10/21 11:49:13;;;;;;;1.65;0.35;;;;;;;;;;5033873;28;20053;-70
2023/10/21 11:51:43;;;;;;;1.83;0.40;;;;;;;;;;5036799;28;20245;-71
2023/10/21 11:54:19;;;;;;;2.20;0.17;;;;;;;;;;5041025;28;20057;-70
2023/10/21 12:30:10;;;;;;;1.20;0.35;;;;;;;;;;5037490;28;20041;-71
2023/10/21 12:45:46;;;;;;;0.93;0.40;;;;;;;;;;5040863;28;20048;-71
2023/10/21 12:48:14;;;;;;;0.52;0.15;;;;;;;;;;5056188;28;20652;-71
2023/10/21 12:50:40;;;;;;;1.73;0.22;;;;;;;;;;5034783;28;20470;-71
2023/10/21 12:53:08;;;;;;;1.02;0.20;;;;;;;;;;5029660;28;20073;-71
2023/10/21 12:55:35;;;;;;;1.10;0.30;;;;;;;;;;5042781;28;20049;-70
2023/10/21 12:58:02;;;;;;;0.70;0.25;;;;;;;;;;5036918;28;20048;-70
2023/10/21 13:00:29;;;;;;;0.30;0.10;;;;;;;;;;5036168;28;20081;-70
2023/10/21 13:02:56;;;;;;;0.82;0.20;;;;;;;;;;5043730;28;20060;-71
2023/10/21 13:05:23;;;;;;;0.90;0.20;;;;;;;;;;5039866;28;20140;-71
2023/10/21 13:07:52;;;;;;;1.13;0.20;;;;;;;;;;5040543;28;20049;-72
2023/10/21 13:10:19;;;;;;;0.35;0.20;;;;;;;;;;5037577;28;20053;-71
2023/10/21 13:12:46;;;;;;;0.73;0.13;;;;;;;;;;5045296;28;20037;-70
2023/10/21 13:15:13;;;;;;;0.30;0.10;;;;;;;;;;5039968;28;20044;-72
2023/10/21 13:17:40;;;;;;;1.20;0.30;;;;;;;;;;5056229;28;20092;-72
2023/10/21 13:20:16;;;;;;;0.32;0.17;;;;;;;;;;5037470;28;20037;-71
2023/10/21 13:22:46;;;;;;;3.75;0.32;;;;;;;;;;5048236;28;20072;-70
2023/10/21 13:25:13;;;;;;;1.30;0.50;;;;;;;;;;5036470;28;20446;-71
2023/10/21 13:27:51;;;;;;;1.15;0.35;;;;;;;;;;5044497;28;20504;-70
2023/10/21 13:30:17;;;;;;;0.30;0.10;;;;;;;;;;5033567;28;20126;-70
2023/10/21 13:32:45;;;;;;;2.05;0.30;;;;;;;;;;5047042;28;20139;-70
2023/10/21 13:35:12;;;;;;;2.28;0.45;;;;;;;;;;5034445;28;20136;-71
2023/10/21 13:37:39;;;;;;;2.38;0.20;;;;;;;;;;5040930;28;20091;-69
2023/10/21 13:40:15;;;;;;;2.28;0.25;;;;;;;;;;5040439;28;20168;-70
2023/10/21 13:42:46;;;;;;;3.45;0.47;;;;;;;;;;5029930;28;20056;-70
2023/10/21 13:45:19;;;;;;;3.30;0.30;;;;;;;;;;5037138;28;20279;-70
2023/10/21 13:47:53;;;;;;;0.40;0.10;;;;;;;;;;5039822;28;20087;-70
2023/10/21 13:50:23;;;;;;;1.25;0.30;;;;;;;;;;5040978;28;20053;-70
2023/10/21 13:53:11;;;;;;;0.43;0.10;;;;;;;;;;5040861;28;20049;-74
2023/10/21 13:55:43;;;;;;;1.73;0.20;;;;;;;;;;5039447;28;20160;-70
2023/10/21 13:58:10;;;;;;;2.13;0.20;;;;;;;;;;5036781;28;20084;-70
2023/10/21 14:00:37;;;;;;;2.10;0.45;;;;;;;;;;5038353;28;20049;-70
2023/10/21 14:03:10;;;;;;;0.47;0.10;;;;;;;;;;5045424;28;20040;-72
2023/10/21 14:05:38;;;;;;;0.75;0.30;;;;;;;;;;5037689;28;20090;-70
2023/10/21 14:08:10;;;;;;;0.40;0.20;;;;;;;;;;5044576;28;20375;-71
2023/10/21 14:10:40;;;;;;;2.90;0.20;;;;;;;;;;5033071;28;20073;-70
2023/10/21 14:13:12;;;;;;;2.30;0.45;;;;;;;;;;5026683;28;20099;-70
2023/10/21 14:15:39;;;;;;;0.73;0.20;;;;;;;;;;5035851;28;20383;-70
2023/10/21 14:18:07;;;;;;;0.10;0.10;;;;;;;;;;5046091;28;20126;-70
2023/10/21 14:20:35;;;;;;;0.43;0.10;;;;;;;;;;5036797;28;20045;-70
2023/10/21 14:23:01;;;;;;;0.90;0.10;;;;;;;;;;5042981;28;20564;-70
2023/10/21 14:25:28;;;;;;;0.80;0.25;;;;;;;;;;5028406;28;20053;-70
2023/10/21 14:27:54;;;;;;;3.85;0.30;;;;;;;;;;5034014;28;20152;-70
2023/10/21 14:30:21;;;;;;;1.58;0.32;;;;;;;;;;5039124;28;20080;-70
2023/10/21 14:32:48;;;;;;;2.55;0.30;;;;;;;;;;5042317;28;20052;-70
2023/10/21 14:35:14;;;;;;;1.25;0.17;;;;;;;;;;5040888;28;20111;-70
2023/10/21 14:37:41;;;;;;;1.30;0.20;;;;;;;;;;5026926;28;20139;-70
2023/10/21 14:40:10;;;;;;;1.15;0.20;;;;;;;;;;5039250;28;20537;-71
2023/10/21 14:42:37;;;;;;;0.47;0.28;;;;;;;;;;5037774;28;20052;-71
2023/10/21 14:45:04;;;;;;;0.85;0.30;;;;;;;;;;5043957;28;20041;-70
2023/10/21 14:47:33;;;;;;;0.85;0.25;;;;;;;;;;5042567;28;20080;-70
2023/10/21 14:50:01;;;;;;;2.42;0.60;;;;;;;;;;5046354;28;20053;-69
2023/10/21 14:52:27;;;;;;;0.50;0.17;;;;;;;;;;5035482;28;20052;-69
2023/10/21 14:54:55;;;;;;;1.67;0.30;;;;;;;;;;5044101;28;20172;-69
2023/10/21 14:57:23;;;;;;;1.08;0.20;;;;;;;;;;5043635;28;20049;-70
2023/10/21 14:59:49;;;;;;;1.80;0.68;;;;;;;;;;5042851;28;20049;-70
2023/10/21 15:02:18;;;;;;;1.90;0.50;;;;;;;;;;5035392;28;20055;-70
2023/10/21 15:04:45;;;;;;;1.13;0.30;;;;;;;;;;5037598;28;20059;-70
2023/10/21 15:07:12;;;;;;;0.90;0.30;;;;;;;;;;5032811;28;20137;-70
2023/10/21 15:09:38;;;;;;;1.65;0.50;;;;;;;;;;5030979;28;20536;-70
2023/10/21 15:12:05;;;;;;;3.15;0.52;;;;;;;;;;5036531;28;20682;-71
2023/10/21 15:14:31;;;;;;;1.10;0.68;;;;;;;;;;5045675;28;20690;-70